Toquerville, Utah
Current Conditions -  °F | °C
As of 3:35 PM on Monday 24 Nov 2014 (Local Time) from KSGU Reporting Station
Clear Clear  
Wind Chill: 57°   Ceiling: Unl
Heat Index: 57°   Visibility: 10mi
Dew Point: 14°   Wind: 3mph
Humidity: 18%   Direction: 140°SE
Pressure: 30.35"   Gusts: NA
Location:  37.25°N, 113.28°W
Report Text: KSGU 242235Z AUTO 14003KT 10SM CLR 14/M10 A3035 RMK AO1
Loading
Personal Weather Stations






























Interactive Weather Map New forecast layout! Learn more

10-Day Weather Forecast

Advertisements
Track Severe Weather on mobile